Nagano, Japan
Current Conditions -  °F | °C
As of 9:24 PM on Wednesday 26 Nov 2014 (Local Time) from RJNT Reporting Station
Rain Showers Rain Showers  
Wind Chill: 52°   Ceiling: 3500
Heat Index: 52°   Visibility: 4mi
Dew Point: 48°   Wind: 3mph
Humidity: 88%   Direction: 240°WSW
Pressure: 29.97"   Gusts: NA
Location:  36.65°N, 138.18°E
Report Text: RJNT 261224Z 24003KT 6000 -SHRA FEW003 SCT010 BKN035 11/09 Q1015 RMK 1ST003 4CU010 7CU035 A3000
Loading
Personal Weather Stations






























Interactive Weather Map New forecast layout! Learn more

10-Day Weather Forecast

Advertisements
Track Severe Weather on mobile